sensor_id;sensor_type;location;lat;lon;timestamp;pressure;altitude;pressure_sealevel;temperature;humidity
85163;BME280;75527;48.526;9.158;2024-02-04T00:00:13;98376.72;;;6.82;72.29
85163;BME280;75527;48.526;9.158;2024-02-04T00:02:38;98380.41;;;6.74;72.53
85163;BME280;75527;48.526;9.158;2024-02-04T00:05:04;98387.72;;;6.72;73.03
85163;BME280;75527;48.526;9.158;2024-02-04T00:07:29;98380.81;;;6.78;71.76
85163;BME280;75527;48.526;9.158;2024-02-04T00:09:54;98367.50;;;6.66;72.91
85163;BME280;75527;48.526;9.158;2024-02-04T00:12:20;98380.22;;;6.69;72.68
85163;BME280;75527;48.526;9.158;2024-02-04T00:14:46;98384.66;;;6.75;72.38
85163;BME280;75527;48.526;9.158;2024-02-04T00:17:13;98377.66;;;6.63;72.15
85163;BME280;75527;48.526;9.158;2024-02-04T00:19:40;98375.38;;;6.66;72.33
85163;BME280;75527;48.526;9.158;2024-02-04T00:22:05;98388.94;;;6.70;73.31
85163;BME280;75527;48.526;9.158;2024-02-04T00:24:30;98377.59;;;6.69;72.91
85163;BME280;75527;48.526;9.158;2024-02-04T00:26:56;98358.09;;;6.52;73.26
85163;BME280;75527;48.526;9.158;2024-02-04T00:29:21;98372.34;;;6.69;73.41
85163;BME280;75527;48.526;9.158;2024-02-04T00:31:46;98357.81;;;6.67;73.52
85163;BME280;75527;48.526;9.158;2024-02-04T00:34:12;98347.31;;;6.67;72.74
85163;BME280;75527;48.526;9.158;2024-02-04T00:36:37;98340.84;;;6.63;72.98
85163;BME280;75527;48.526;9.158;2024-02-04T00:39:02;98334.78;;;6.62;73.52
85163;BME280;75527;48.526;9.158;2024-02-04T00:41:27;98345.25;;;6.69;73.07
85163;BME280;75527;48.526;9.158;2024-02-04T00:43:53;98312.34;;;6.60;73.49
85163;BME280;75527;48.526;9.158;2024-02-04T00:46:18;98327.91;;;6.61;72.60
85163;BME280;75527;48.526;9.158;2024-02-04T00:48:44;98334.34;;;6.65;72.66
85163;BME280;75527;48.526;9.158;2024-02-04T00:51:09;98321.47;;;6.57;73.07
85163;BME280;75527;48.526;9.158;2024-02-04T00:53:35;98337.19;;;6.64;72.59
85163;BME280;75527;48.526;9.158;2024-02-04T00:56:04;98306.53;;;6.51;72.83
85163;BME280;75527;48.526;9.158;2024-02-04T00:58:29;98311.31;;;6.61;73.31
85163;BME280;75527;48.526;9.158;2024-02-04T01:00:55;98303.66;;;6.59;72.60
85163;BME280;75527;48.526;9.158;2024-02-04T01:03:20;98316.22;;;6.57;73.99
85163;BME280;75527;48.526;9.158;2024-02-04T01:05:45;98289.59;;;6.40;73.20
85163;BME280;75527;48.526;9.158;2024-02-04T01:08:11;98315.59;;;6.55;73.56
85163;BME280;75527;48.526;9.158;2024-02-04T01:10:36;98298.91;;;6.43;73.17
85163;BME280;75527;48.526;9.158;2024-02-04T01:13:02;98325.50;;;6.60;73.12
85163;BME280;75527;48.526;9.158;2024-02-04T01:15:28;98315.81;;;6.53;72.20
85163;BME280;75527;48.526;9.158;2024-02-04T01:17:53;98326.50;;;6.59;72.37
85163;BME280;75527;48.526;9.158;2024-02-04T01:20:18;98312.63;;;6.45;72.48
85163;BME280;75527;48.526;9.158;2024-02-04T01:22:44;98302.31;;;6.43;73.49
85163;BME280;75527;48.526;9.158;2024-02-04T01:25:09;98301.53;;;6.43;73.12
85163;BME280;75527;48.526;9.158;2024-02-04T01:27:34;98324.09;;;6.57;72.51
85163;BME280;75527;48.526;9.158;2024-02-04T01:30:00;98301.34;;;6.38;72.97
85163;BME280;75527;48.526;9.158;2024-02-04T01:32:25;98318.44;;;6.53;73.36
85163;BME280;75527;48.526;9.158;2024-02-04T01:34:50;98293.28;;;6.33;73.21
85163;BME280;75527;48.526;9.158;2024-02-04T01:37:15;98295.25;;;6.44;72.82
85163;BME280;75527;48.526;9.158;2024-02-04T01:39:41;98281.75;;;6.34;73.74
85163;BME280;75527;48.526;9.158;2024-02-04T01:42:06;98282.81;;;6.19;74.12
85163;BME280;75527;48.526;9.158;2024-02-04T01:44:31;98286.03;;;6.28;74.37
85163;BME280;75527;48.526;9.158;2024-02-04T01:46:57;98292.09;;;6.29;74.61
85163;BME280;75527;48.526;9.158;2024-02-04T01:49:22;98274.75;;;6.14;73.61
85163;BME280;75527;48.526;9.158;2024-02-04T01:51:48;98244.91;;;6.02;74.46
85163;BME280;75527;48.526;9.158;2024-02-04T01:54:14;98260.47;;;6.10;74.89
85163;BME280;75527;48.526;9.158;2024-02-04T01:56:40;98278.84;;;6.10;74.34
85163;BME280;75527;48.526;9.158;2024-02-04T01:59:06;98292.38;;;6.07;74.21
85163;BME280;75527;48.526;9.158;2024-02-04T02:01:32;98300.44;;;6.12;74.11
85163;BME280;75527;48.526;9.158;2024-02-04T02:03:58;98286.53;;;6.05;74.82
85163;BME280;75527;48.526;9.158;2024-02-04T02:06:23;98297.63;;;6.07;74.71
85163;BME280;75527;48.526;9.158;2024-02-04T02:08:49;98315.16;;;6.13;74.09
85163;BME280;75527;48.526;9.158;2024-02-04T02:11:27;98295.22;;;6.06;73.97
85163;BME280;75527;48.526;9.158;2024-02-04T02:14:01;98299.03;;;6.03;73.64
85163;BME280;75527;48.526;9.158;2024-02-04T02:16:30;98312.34;;;6.08;74.49
85163;BME280;75527;48.526;9.158;2024-02-04T02:21:53;98302.22;;;6.18;74.41
85163;BME280;75527;48.526;9.158;2024-02-04T02:26:50;98320.19;;;6.21;74.00
85163;BME280;75527;48.526;9.158;2024-02-04T02:29:15;98320.00;;;6.23;73.33
85163;BME280;75527;48.526;9.158;2024-02-04T02:31:42;98311.53;;;6.21;73.78
85163;BME280;75527;48.526;9.158;2024-02-04T02:34:08;98310.66;;;6.34;73.46
85163;BME280;75527;48.526;9.158;2024-02-04T02:36:44;98288.28;;;6.18;73.41
85163;BME280;75527;48.526;9.158;2024-02-04T02:39:21;98305.56;;;6.39;73.71
85163;BME280;75527;48.526;9.158;2024-02-04T02:41:49;98305.75;;;6.44;73.39
85163;BME280;75527;48.526;9.158;2024-02-04T02:44:16;98300.72;;;6.36;73.08
85163;BME280;75527;48.526;9.158;2024-02-04T02:46:42;98301.75;;;6.35;72.91
85163;BME280;75527;48.526;9.158;2024-02-04T02:49:08;98280.00;;;6.14;73.87
85163;BME280;75527;48.526;9.158;2024-02-04T02:51:33;98307.44;;;6.32;73.26
85163;BME280;75527;48.526;9.158;2024-02-04T02:53:59;98299.56;;;6.32;74.56
85163;BME280;75527;48.526;9.158;2024-02-04T02:56:24;98288.06;;;6.26;73.54
85163;BME280;75527;48.526;9.158;2024-02-04T02:58:49;98275.97;;;6.18;73.84
85163;BME280;75527;48.526;9.158;2024-02-04T03:01:15;98293.09;;;6.28;74.63
85163;BME280;75527;48.526;9.158;2024-02-04T03:03:40;98295.72;;;6.28;73.72
85163;BME280;75527;48.526;9.158;2024-02-04T03:06:05;98302.38;;;6.30;73.01
85163;BME280;75527;48.526;9.158;2024-02-04T03:08:31;98278.97;;;6.22;73.65
85163;BME280;75527;48.526;9.158;2024-02-04T03:10:57;98287.88;;;6.14;73.27
85163;BME280;75527;48.526;9.158;2024-02-04T03:13:22;98318.56;;;6.27;73.45
85163;BME280;75527;48.526;9.158;2024-02-04T03:15:47;98307.44;;;6.32;72.92
85163;BME280;75527;48.526;9.158;2024-02-04T03:18:13;98297.78;;;6.25;74.24
85163;BME280;75527;48.526;9.158;2024-02-04T03:20:38;98258.63;;;6.04;72.97
85163;BME280;75527;48.526;9.158;2024-02-04T03:23:03;98283.00;;;6.24;73.88
85163;BME280;75527;48.526;9.158;2024-02-04T03:25:29;98308.41;;;6.37;73.30
85163;BME280;75527;48.526;9.158;2024-02-04T03:27:54;98302.94;;;6.39;73.07
85163;BME280;75527;48.526;9.158;2024-02-04T03:30:20;98298.94;;;6.30;74.21
85163;BME280;75527;48.526;9.158;2024-02-04T03:32:45;98315.06;;;6.40;73.34
85163;BME280;75527;48.526;9.158;2024-02-04T03:35:10;98302.38;;;6.37;74.67
85163;BME280;75527;48.526;9.158;2024-02-04T03:37:36;98312.25;;;6.41;73.98
85163;BME280;75527;48.526;9.158;2024-02-04T03:40:01;98281.44;;;6.17;74.24
85163;BME280;75527;48.526;9.158;2024-02-04T03:42:26;98309.81;;;6.40;73.32
85163;BME280;75527;48.526;9.158;2024-02-04T03:44:52;98322.72;;;6.48;72.74
85163;BME280;75527;48.526;9.158;2024-02-04T03:47:17;98315.06;;;6.46;73.69
85163;BME280;75527;48.526;9.158;2024-02-04T03:49:42;98303.53;;;6.47;73.22
85163;BME280;75527;48.526;9.158;2024-02-04T03:52:07;98303.94;;;6.44;73.67
85163;BME280;75527;48.526;9.158;2024-02-04T03:54:33;98301.31;;;6.44;72.97
85163;BME280;75527;48.526;9.158;2024-02-04T03:56:58;98282.78;;;6.33;73.34
85163;BME280;75527;48.526;9.158;2024-02-04T03:59:23;98277.53;;;6.33;73.11
85163;BME280;75527;48.526;9.158;2024-02-04T04:01:49;98255.75;;;6.19;73.36
85163;BME280;75527;48.526;9.158;2024-02-04T04:04:17;98262.38;;;6.28;73.61
85163;BME280;75527;48.526;9.158;2024-02-04T04:06:44;98257.13;;;6.28;73.16
85163;BME280;75527;48.526;9.158;2024-02-04T04:09:10;98243.97;;;6.35;74.08
85163;BME280;75527;48.526;9.158;2024-02-04T04:11:35;98254.06;;;6.38;73.48
85163;BME280;75527;48.526;9.158;2024-02-04T04:14:01;98252.63;;;6.35;74.10
85163;BME280;75527;48.526;9.158;2024-02-04T04:16:26;98261.31;;;6.36;73.56
85163;BME280;75527;48.526;9.158;2024-02-04T04:18:51;98225.84;;;6.20;74.17
85163;BME280;75527;48.526;9.158;2024-02-04T04:21:17;98255.31;;;6.29;73.55
85163;BME280;75527;48.526;9.158;2024-02-04T04:23:42;98274.47;;;6.36;73.49
85163;BME280;75527;48.526;9.158;2024-02-04T04:26:07;98264.59;;;6.31;73.28
85163;BME280;75527;48.526;9.158;2024-02-04T04:28:33;98250.94;;;6.16;73.87
85163;BME280;75527;48.526;9.158;2024-02-04T04:30:58;98240.44;;;6.16;73.67
85163;BME280;75527;48.526;9.158;2024-02-04T04:33:23;98277.94;;;6.30;74.73
85163;BME280;75527;48.526;9.158;2024-02-04T04:35:49;98286.78;;;6.35;73.28
85163;BME280;75527;48.526;9.158;2024-02-04T04:38:14;98277.91;;;6.36;73.23
85163;BME280;75527;48.526;9.158;2024-02-04T04:40:39;98270.25;;;6.28;73.56
85163;BME280;75527;48.526;9.158;2024-02-04T04:43:07;98244.88;;;6.15;73.16
85163;BME280;75527;48.526;9.158;2024-02-04T04:45:32;98242.03;;;6.17;73.83
85163;BME280;75527;48.526;9.158;2024-02-04T04:47:58;98266.63;;;6.29;73.13
85163;BME280;75527;48.526;9.158;2024-02-04T04:50:23;98229.53;;;6.12;73.39
85163;BME280;75527;48.526;9.158;2024-02-04T04:52:49;98254.72;;;6.20;72.82
85163;BME280;75527;48.526;9.158;2024-02-04T04:55:14;98259.00;;;6.21;73.74
85163;BME280;75527;48.526;9.158;2024-02-04T04:57:40;98279.19;;;6.20;73.44
85163;BME280;75527;48.526;9.158;2024-02-04T05:00:06;98272.34;;;6.13;73.54
85163;BME280;75527;48.526;9.158;2024-02-04T05:02:32;98269.94;;;6.11;73.75
85163;BME280;75527;48.526;9.158;2024-02-04T05:04:58;98281.22;;;6.18;73.56
85163;BME280;75527;48.526;9.158;2024-02-04T05:07:24;98284.50;;;6.07;72.91
85163;BME280;75527;48.526;9.158;2024-02-04T05:09:49;98275.56;;;6.15;74.15
85163;BME280;75527;48.526;9.158;2024-02-04T05:12:14;98268.53;;;6.09;73.92
85163;BME280;75527;48.526;9.158;2024-02-04T05:14:40;98291.13;;;6.16;73.45
85163;BME280;75527;48.526;9.158;2024-02-04T05:17:05;98298.03;;;6.11;72.93
85163;BME280;75527;48.526;9.158;2024-02-04T05:19:31;98306.69;;;6.11;73.72
85163;BME280;75527;48.526;9.158;2024-02-04T05:21:56;98285.91;;;6.03;73.17
85163;BME280;75527;48.526;9.158;2024-02-04T05:24:21;98307.06;;;6.15;73.44
85163;BME280;75527;48.526;9.158;2024-02-04T05:26:46;98296.00;;;6.06;73.21
85163;BME280;75527;48.526;9.158;2024-02-04T05:29:12;98310.13;;;6.12;72.65
85163;BME280;75527;48.526;9.158;2024-02-04T05:31:43;98317.81;;;6.07;73.34
85163;BME280;75527;48.526;9.158;2024-02-04T05:34:09;98310.34;;;6.10;72.90
85163;BME280;75527;48.526;9.158;2024-02-04T05:36:34;98291.41;;;5.95;73.49
85163;BME280;75527;48.526;9.158;2024-02-04T05:39:13;98320.00;;;6.16;73.19
85163;BME280;75527;48.526;9.158;2024-02-04T05:41:39;98324.88;;;6.13;73.91
85163;BME280;75527;48.526;9.158;2024-02-04T05:44:05;98319.63;;;6.13;73.74
85163;BME280;75527;48.526;9.158;2024-02-04T05:46:31;98333.16;;;6.16;73.63
85163;BME280;75527;48.526;9.158;2024-02-04T05:48:56;98317.19;;;6.05;73.84
85163;BME280;75527;48.526;9.158;2024-02-04T05:51:22;98309.13;;;6.06;73.50
85163;BME280;75527;48.526;9.158;2024-02-04T05:53:47;98324.47;;;6.16;73.90
85163;BME280;75527;48.526;9.158;2024-02-04T05:56:12;98307.97;;;5.95;73.56
85163;BME280;75527;48.526;9.158;2024-02-04T05:58:38;98322.63;;;6.10;73.65
85163;BME280;75527;48.526;9.158;2024-02-04T06:01:04;98317.19;;;6.05;73.60
85163;BME280;75527;48.526;9.158;2024-02-04T06:03:29;98292.78;;;5.91;73.29
85163;BME280;75527;48.526;9.158;2024-02-04T06:05:54;98338.59;;;6.15;74.15
85163;BME280;75527;48.526;9.158;2024-02-04T06:08:20;98342.22;;;6.20;74.29
85163;BME280;75527;48.526;9.158;2024-02-04T06:10:45;98352.53;;;6.15;73.77
85163;BME280;75527;48.526;9.158;2024-02-04T06:13:10;98325.09;;;6.11;74.07
85163;BME280;75527;48.526;9.158;2024-02-04T06:15:35;98333.72;;;6.18;74.63
85163;BME280;75527;48.526;9.158;2024-02-04T06:18:01;98339.41;;;6.15;74.51
85163;BME280;75527;48.526;9.158;2024-02-04T06:20:26;98329.91;;;6.14;73.33
85163;BME280;75527;48.526;9.158;2024-02-04T06:22:52;98311.38;;;5.96;74.62
85163;BME280;75527;48.526;9.158;2024-02-04T06:25:17;98305.31;;;6.02;73.57
85163;BME280;75527;48.526;9.158;2024-02-04T06:27:42;98317.81;;;6.07;74.67
85163;BME280;75527;48.526;9.158;2024-02-04T06:30:08;98336.19;;;6.13;74.25
85163;BME280;75527;48.526;9.158;2024-02-04T06:32:33;98283.31;;;5.90;73.95
85163;BME280;75527;48.526;9.158;2024-02-04T06:34:59;98328.50;;;6.12;74.63
85163;BME280;75527;48.526;9.158;2024-02-04T06:37:24;98336.97;;;6.14;74.72
85163;BME280;75527;48.526;9.158;2024-02-04T06:39:52;98320.25;;;6.02;74.90
85163;BME280;75527;48.526;9.158;2024-02-04T06:42:17;98328.91;;;6.09;74.91
85163;BME280;75527;48.526;9.158;2024-02-04T06:44:45;98333.97;;;6.10;74.97
85163;BME280;75527;48.526;9.158;2024-02-04T06:47:11;98325.91;;;6.05;73.58
85163;BME280;75527;48.526;9.158;2024-02-04T06:49:43;98339.44;;;6.02;74.39
85163;BME280;75527;48.526;9.158;2024-02-04T06:52:09;98336.22;;;6.00;74.23
85163;BME280;75527;48.526;9.158;2024-02-04T06:54:35;98335.78;;;6.03;75.24
85163;BME280;75527;48.526;9.158;2024-02-04T06:57:00;98340.47;;;6.01;74.85
85163;BME280;75527;48.526;9.158;2024-02-04T06:59:25;98326.13;;;5.90;74.86
85163;BME280;75527;48.526;9.158;2024-02-04T07:01:51;98354.38;;;6.08;75.26
85163;BME280;75527;48.526;9.158;2024-02-04T07:04:18;98343.91;;;5.95;74.54
85163;BME280;75527;48.526;9.158;2024-02-04T07:06:43;98342.88;;;5.96;74.63
85163;BME280;75527;48.526;9.158;2024-02-04T07:09:09;98348.72;;;6.05;74.64
85163;BME280;75527;48.526;9.158;2024-02-04T07:11:34;98360.81;;;6.12;74.46
85163;BME280;75527;48.526;9.158;2024-02-04T07:13:59;98320.47;;;5.93;73.37
85163;BME280;75527;48.526;9.158;2024-02-04T07:16:25;98351.53;;;6.10;74.84
85163;BME280;75527;48.526;9.158;2024-02-04T07:18:50;98353.72;;;6.19;73.73
85163;BME280;75527;48.526;9.158;2024-02-04T07:21:16;98341.63;;;6.18;74.44
85163;BME280;75527;48.526;9.158;2024-02-04T07:23:41;98344.22;;;6.25;73.17
85163;BME280;75527;48.526;9.158;2024-02-04T07:26:07;98320.41;;;6.13;73.54
85163;BME280;75527;48.526;9.158;2024-02-04T07:28:32;98327.47;;;6.19;74.46
85163;BME280;75527;48.526;9.158;2024-02-04T07:30:57;98324.44;;;6.22;74.47
85163;BME280;75527;48.526;9.158;2024-02-04T07:33:23;98326.06;;;6.17;74.30
85163;BME280;75527;48.526;9.158;2024-02-04T07:35:48;98329.88;;;6.28;73.99
85163;BME280;75527;48.526;9.158;2024-02-04T07:38:13;98323.63;;;6.22;73.93
85163;BME280;75527;48.526;9.158;2024-02-04T07:40:39;98309.47;;;6.23;73.43
85163;BME280;75527;48.526;9.158;2024-02-04T07:43:04;98322.75;;;6.41;74.19
85163;BME280;75527;48.526;9.158;2024-02-04T07:45:29;98336.09;;;6.40;73.47
85163;BME280;75527;48.526;9.158;2024-02-04T07:47:55;98335.25;;;6.46;71.78
85163;BME280;75527;48.526;9.158;2024-02-04T07:50:20;98338.69;;;6.46;72.20
85163;BME280;75527;48.526;9.158;2024-02-04T07:52:45;98350.25;;;6.39;72.89
85163;BME280;75527;48.526;9.158;2024-02-04T07:55:10;98340.50;;;6.52;73.25
85163;BME280;75527;48.526;9.158;2024-02-04T07:57:36;98345.75;;;6.46;73.03
85163;BME280;75527;48.526;9.158;2024-02-04T08:00:01;98348.19;;;6.41;72.89
85163;BME280;75527;48.526;9.158;2024-02-04T08:02:30;98353.25;;;6.42;72.25
85163;BME280;75527;48.526;9.158;2024-02-04T08:04:55;98344.97;;;6.39;73.06
85163;BME280;75527;48.526;9.158;2024-02-04T08:07:21;98338.06;;;6.51;72.34
85163;BME280;75527;48.526;9.158;2024-02-04T08:09:46;98345.34;;;6.49;72.40
85163;BME280;75527;48.526;9.158;2024-02-04T08:12:11;98331.00;;;6.45;71.86
85163;BME280;75527;48.526;9.158;2024-02-04T08:14:37;98325.94;;;6.50;72.49
85163;BME280;75527;48.526;9.158;2024-02-04T08:17:02;98325.09;;;6.56;73.51
85163;BME280;75527;48.526;9.158;2024-02-04T08:19:28;98315.59;;;6.62;72.64
85163;BME280;75527;48.526;9.158;2024-02-04T08:21:53;98306.47;;;6.64;71.66
85163;BME280;75527;48.526;9.158;2024-02-04T08:24:18;98303.78;;;6.77;72.12
85163;BME280;75527;48.526;9.158;2024-02-04T08:26:43;98311.84;;;6.76;71.92
85163;BME280;75527;48.526;9.158;2024-02-04T08:29:09;98310.81;;;6.84;71.75
85163;BME280;75527;48.526;9.158;2024-02-04T08:31:34;98322.09;;;6.91;71.80
85163;BME280;75527;48.526;9.158;2024-02-04T08:33:59;98325.56;;;6.85;71.64
85163;BME280;75527;48.526;9.158;2024-02-04T08:36:25;98323.69;;;6.92;71.85
85163;BME280;75527;48.526;9.158;2024-02-04T08:38:50;98307.16;;;6.85;72.20
85163;BME280;75527;48.526;9.158;2024-02-04T08:41:15;98308.88;;;7.04;71.40
85163;BME280;75527;48.526;9.158;2024-02-04T08:43:41;98306.88;;;6.99;70.79
85163;BME280;75527;48.526;9.158;2024-02-04T08:46:06;98286.25;;;6.96;71.00
85163;BME280;75527;48.526;9.158;2024-02-04T08:48:31;98293.66;;;7.06;71.04
85163;BME280;75527;48.526;9.158;2024-02-04T08:50:57;98289.16;;;7.13;71.10
85163;BME280;75527;48.526;9.158;2024-02-04T08:53:22;98276.91;;;7.00;70.47
85163;BME280;75527;48.526;9.158;2024-02-04T08:55:49;98298.50;;;7.09;70.48
85163;BME280;75527;48.526;9.158;2024-02-04T08:58:14;98284.81;;;7.00;70.36
85163;BME280;75527;48.526;9.158;2024-02-04T09:00:39;98321.91;;;7.17;71.09
85163;BME280;75527;48.526;9.158;2024-02-04T09:03:04;98298.13;;;7.05;70.91
85163;BME280;75527;48.526;9.158;2024-02-04T09:05:30;98322.94;;;7.16;70.35
85163;BME280;75527;48.526;9.158;2024-02-04T09:07:55;98303.94;;;7.14;70.69
85163;BME280;75527;48.526;9.158;2024-02-04T09:10:21;98321.97;;;7.36;69.58
85163;BME280;75527;48.526;9.158;2024-02-04T09:12:46;98307.31;;;7.21;70.30
85163;BME280;75527;48.526;9.158;2024-02-04T09:15:12;98306.41;;;7.34;69.84
85163;BME280;75527;48.526;9.158;2024-02-04T09:17:37;98307.81;;;7.37;70.10
85163;BME280;75527;48.526;9.158;2024-02-04T09:20:02;98313.81;;;7.44;70.28
85163;BME280;75527;48.526;9.158;2024-02-04T09:22:29;98307.63;;;7.31;69.87
85163;BME280;75527;48.526;9.158;2024-02-04T09:24:54;98296.78;;;7.21;69.43
85163;BME280;75527;48.526;9.158;2024-02-04T09:27:19;98315.84;;;7.42;69.53
85163;BME280;75527;48.526;9.158;2024-02-04T09:29:45;98321.75;;;7.37;70.59
85163;BME280;75527;48.526;9.158;2024-02-04T09:32:10;98294.53;;;7.25;70.18
85163;BME280;75527;48.526;9.158;2024-02-04T09:34:35;98300.78;;;7.30;70.00
85163;BME280;75527;48.526;9.158;2024-02-04T09:37:01;98315.06;;;7.41;69.27
85163;BME280;75527;48.526;9.158;2024-02-04T09:39:27;98316.44;;;7.44;69.21
85163;BME280;75527;48.526;9.158;2024-02-04T09:41:54;98309.50;;;7.49;69.15
85163;BME280;75527;48.526;9.158;2024-02-04T09:44:21;98309.56;;;7.43;69.33
85163;BME280;75527;48.526;9.158;2024-02-04T09:46:47;98285.63;;;7.51;68.14
85163;BME280;75527;48.526;9.158;2024-02-04T09:49:13;98322.50;;;7.69;68.94
85163;BME280;75527;48.526;9.158;2024-02-04T09:51:41;98309.63;;;7.79;67.56
85163;BME280;75527;48.526;9.158;2024-02-04T09:54:09;98304.44;;;7.73;68.70
85163;BME280;75527;48.526;9.158;2024-02-04T09:56:37;98318.28;;;7.87;67.48
85163;BME280;75527;48.526;9.158;2024-02-04T09:59:03;98337.72;;;7.86;68.15
85163;BME280;75527;48.526;9.158;2024-02-04T10:01:29;98367.06;;;7.89;67.67
85163;BME280;75527;48.526;9.158;2024-02-04T10:03:56;98344.66;;;7.80;68.35
85163;BME280;75527;48.526;9.158;2024-02-04T10:06:21;98321.13;;;7.85;68.13
85163;BME280;75527;48.526;9.158;2024-02-04T10:08:47;98334.97;;;7.99;67.61
85163;BME280;75527;48.526;9.158;2024-02-04T10:11:13;98328.09;;;7.98;67.99
85163;BME280;75527;48.526;9.158;2024-02-04T10:13:46;98338.56;;;8.04;68.07
85163;BME280;75527;48.526;9.158;2024-02-04T10:16:12;98318.13;;;8.00;67.94
85163;BME280;75527;48.526;9.158;2024-02-04T10:18:41;98321.22;;;7.97;67.53
85163;BME280;75527;48.526;9.158;2024-02-04T10:21:23;98307.38;;;7.83;67.43
85163;BME280;75527;48.526;9.158;2024-02-04T10:23:50;98297.72;;;7.95;67.56
85163;BME280;75527;48.526;9.158;2024-02-04T10:26:16;98299.84;;;8.05;67.33
85163;BME280;75527;48.526;9.158;2024-02-04T10:28:42;98294.44;;;8.00;68.12
85163;BME280;75527;48.526;9.158;2024-02-04T10:31:09;98281.69;;;8.15;67.64
85163;BME280;75527;48.526;9.158;2024-02-04T10:33:38;98294.59;;;8.42;66.37
85163;BME280;75527;48.526;9.158;2024-02-04T10:36:04;98275.00;;;8.38;66.13
85163;BME280;75527;48.526;9.158;2024-02-04T10:38:30;98269.09;;;8.54;65.80
85163;BME280;75527;48.526;9.158;2024-02-04T10:40:59;98253.72;;;8.93;64.09
85163;BME280;75527;48.526;9.158;2024-02-04T10:43:30;98258.19;;;8.80;65.10
85163;BME280;75527;48.526;9.158;2024-02-04T10:45:56;98247.38;;;8.70;64.15
85163;BME280;75527;48.526;9.158;2024-02-04T10:48:26;98261.53;;;8.99;64.81
85163;BME280;75527;48.526;9.158;2024-02-04T10:50:55;98227.59;;;9.03;63.46
85163;BME280;75527;48.526;9.158;2024-02-04T10:53:22;98196.38;;;9.35;62.45
85163;BME280;75527;48.526;9.158;2024-02-04T10:55:49;98196.03;;;9.55;61.72
85163;BME280;75527;48.526;9.158;2024-02-04T10:58:15;98228.31;;;9.57;61.05
85163;BME280;75527;48.526;9.158;2024-02-04T11:00:41;98217.16;;;9.67;61.65
85163;BME280;75527;48.526;9.158;2024-02-04T11:03:08;98246.72;;;9.92;60.65
85163;BME280;75527;48.526;9.158;2024-02-04T11:05:34;98201.00;;;9.91;60.48
85163;BME280;75527;48.526;9.158;2024-02-04T11:08:04;98200.69;;;9.88;60.25
85163;BME280;75527;48.526;9.158;2024-02-04T11:10:31;98224.25;;;10.18;58.95
85163;BME280;75527;48.526;9.158;2024-02-04T11:12:58;98240.25;;;10.52;58.69
85163;BME280;75527;48.526;9.158;2024-02-04T11:15:28;98199.53;;;10.36;58.15
85163;BME280;75527;48.526;9.158;2024-02-04T11:18:06;98216.94;;;10.08;59.95
85163;BME280;75527;48.526;9.158;2024-02-04T11:25:52;98255.91;;;11.71;55.22
85163;BME280;75527;48.526;9.158;2024-02-04T11:28:20;98251.75;;;11.75;55.24
85163;BME280;75527;48.526;9.158;2024-02-04T11:30:47;98241.75;;;12.21;53.47
85163;BME280;75527;48.526;9.158;2024-02-04T11:33:21;98236.94;;;12.67;51.38
85163;BME280;75527;48.526;9.158;2024-02-04T11:35:46;98242.03;;;12.73;52.11
85163;BME280;75527;48.526;9.158;2024-02-04T11:38:17;98238.41;;;12.09;53.28
85163;BME280;75527;48.526;9.158;2024-02-04T11:40:42;98244.13;;;12.22;52.90
85163;BME280;75527;48.526;9.158;2024-02-04T11:43:12;98252.44;;;12.53;52.12
85163;BME280;75527;48.526;9.158;2024-02-04T11:45:39;98230.34;;;13.34;49.95
85163;BME280;75527;48.526;9.158;2024-02-04T11:48:06;98229.78;;;13.32;49.62
85163;BME280;75527;48.526;9.158;2024-02-04T11:50:32;98230.50;;;12.63;51.59
85163;BME280;75527;48.526;9.158;2024-02-04T11:53:10;98228.53;;;12.04;53.77
85163;BME280;75527;48.526;9.158;2024-02-04T11:55:41;98212.97;;;11.69;54.60
85163;BME280;75527;48.526;9.158;2024-02-04T11:58:07;98207.94;;;11.51;54.90
85163;BME280;75527;48.526;9.158;2024-02-04T12:00:34;98213.94;;;11.24;56.05
85163;BME280;75527;48.526;9.158;2024-02-04T12:03:07;98214.50;;;11.09;56.99
85163;BME280;75527;48.526;9.158;2024-02-04T12:05:37;98226.78;;;11.32;56.10
85163;BME280;75527;48.526;9.158;2024-02-04T12:08:04;98201.75;;;11.23;56.04
85163;BME280;75527;48.526;9.158;2024-02-04T12:10:31;98206.97;;;11.57;55.74
85163;BME280;75527;48.526;9.158;2024-02-04T12:13:00;98190.34;;;12.27;54.33
85163;BME280;75527;48.526;9.158;2024-02-04T12:15:28;98173.31;;;12.50;53.95
85163;BME280;75527;48.526;9.158;2024-02-04T12:17:53;98157.63;;;12.43;52.83
85163;BME280;75527;48.526;9.158;2024-02-04T12:20:18;98156.88;;;12.21;53.51
85163;BME280;75527;48.526;9.158;2024-02-04T12:22:44;98171.38;;;12.13;54.24
85163;BME280;75527;48.526;9.158;2024-02-04T12:25:10;98186.81;;;12.43;53.41
85163;BME280;75527;48.526;9.158;2024-02-04T12:27:36;98131.44;;;11.76;54.75
85163;BME280;75527;48.526;9.158;2024-02-04T12:30:01;98183.38;;;11.55;55.97
85163;BME280;75527;48.526;9.158;2024-02-04T12:32:26;98174.31;;;11.73;55.60
85163;BME280;75527;48.526;9.158;2024-02-04T12:34:53;98157.44;;;11.57;55.48
85163;BME280;75527;48.526;9.158;2024-02-04T12:37:21;98148.59;;;11.68;55.66
85163;BME280;75527;48.526;9.158;2024-02-04T12:39:47;98136.38;;;11.67;55.64
85163;BME280;75527;48.526;9.158;2024-02-04T12:42:16;98137.16;;;11.68;55.92
85163;BME280;75527;48.526;9.158;2024-02-04T12:44:49;98142.34;;;11.58;56.05
85163;BME280;75527;48.526;9.158;2024-02-04T12:47:19;98134.97;;;11.38;56.69
85163;BME280;75527;48.526;9.158;2024-02-04T12:49:44;98122.38;;;11.28;56.67
85163;BME280;75527;48.526;9.158;2024-02-04T12:52:10;98109.22;;;11.33;56.78
85163;BME280;75527;48.526;9.158;2024-02-04T12:54:42;98126.56;;;11.68;55.73
85163;BME280;75527;48.526;9.158;2024-02-04T12:57:08;98096.03;;;11.82;54.70
85163;BME280;75527;48.526;9.158;2024-02-04T12:59:36;98126.28;;;11.86;55.29
85163;BME280;75527;48.526;9.158;2024-02-04T13:02:04;98132.91;;;11.84;55.51
85163;BME280;75527;48.526;9.158;2024-02-04T13:04:41;98125.88;;;11.94;54.54
85163;BME280;75527;48.526;9.158;2024-02-04T13:07:08;98129.06;;;11.74;55.27
85163;BME280;75527;48.526;9.158;2024-02-04T13:09:38;98107.06;;;11.74;54.81
85163;BME280;75527;48.526;9.158;2024-02-04T13:12:04;98113.31;;;11.85;54.91
85163;BME280;75527;48.526;9.158;2024-02-04T13:14:29;98081.94;;;12.04;54.67